Time;durP1;ratioP1;P1;durP2;ratioP2;P2;SDS_P1;SDS_P2;PMS_P1;PMS_P2;Temp;Humidity;BMP_temperature;BMP_pressure;BME280_temperature;BME280_humidity;BME280_pressure;Samples;Min_cycle;Max_cycle;Signal;HPM_P1;HPM_P2
2022/06/20 00:00:11;;;;;;;4.13;2.13;;;17.70;88.90;;;;;;5068791;28;20042;-68
2022/06/20 00:02:48;;;;;;;4.65;2.30;;;17.70;89.50;;;;;;5066570;28;20082;-68
2022/06/20 00:05:18;;;;;;;4.40;2.33;;;17.60;89.70;;;;;;5068678;28;20033;-68
2022/06/20 00:07:44;;;;;;;5.03;2.20;;;17.60;89.80;;;;;;5054187;28;20135;-68
2022/06/20 00:10:15;;;;;;;4.93;2.25;;;17.50;90.10;;;;;;5053804;28;20119;-68
2022/06/20 00:12:42;;;;;;;5.97;2.38;;;17.50;90.50;;;;;;5051804;28;20036;-68
2022/06/20 00:15:19;;;;;;;4.93;2.53;;;17.50;90.60;;;;;;5054080;28;20029;-68
2022/06/20 00:17:45;;;;;;;5.35;2.60;;;17.40;90.70;;;;;;5058148;28;20040;-68
2022/06/20 00:20:12;;;;;;;9.10;3.17;;;17.40;90.80;;;;;;5053525;28;20037;-68
2022/06/20 00:22:38;;;;;;;5.60;2.67;;;17.40;91.00;;;;;;5063442;28;20076;-68
2022/06/20 00:25:04;;;;;;;4.82;2.30;;;17.40;91.20;;;;;;5068564;28;20507;-69
2022/06/20 00:27:30;;;;;;;6.88;2.90;;;17.40;91.10;;;;;;5071536;28;20036;-68
2022/06/20 00:29:55;;;;;;;7.28;3.10;;;17.40;91.10;;;;;;5062712;28;20097;-68
2022/06/20 00:32:21;;;;;;;7.22;2.72;;;17.40;91.10;;;;;;5058412;28;20051;-68
2022/06/20 00:34:46;;;;;;;5.15;2.53;;;17.40;91.20;;;;;;5055919;28;20040;-68
2022/06/20 00:37:18;;;;;;;8.73;3.65;;;17.40;91.30;;;;;;5058280;28;20031;-68
2022/06/20 00:39:45;;;;;;;6.75;3.45;;;17.30;91.40;;;;;;5056386;28;20391;-68
2022/06/20 00:42:10;;;;;;;6.60;3.00;;;17.30;91.40;;;;;;5051768;28;20389;-68
2022/06/20 00:44:41;;;;;;;9.63;3.38;;;17.40;91.50;;;;;;5051970;28;20032;-68
2022/06/20 00:47:12;;;;;;;8.93;3.08;;;17.40;91.60;;;;;;5056064;28;20025;-68
2022/06/20 00:49:48;;;;;;;3.45;2.35;;;17.40;91.70;;;;;;5057648;28;20407;-68
2022/06/20 00:52:29;;;;;;;6.65;3.00;;;17.40;91.80;;;;;;5057429;28;20089;-68
2022/06/20 00:55:00;;;;;;;7.45;3.75;;;17.50;91.90;;;;;;5069753;28;20024;-68
2022/06/20 00:57:36;;;;;;;5.80;2.78;;;17.60;91.80;;;;;;5055233;28;20037;-68
2022/06/20 01:00:28;;;;;;;6.72;2.70;;;17.60;91.80;;;;;;5067149;28;20025;-68
2022/06/20 01:03:21;;;;;;;7.35;2.55;;;17.60;91.80;;;;;;5061699;28;20048;-69
2022/06/20 01:05:48;;;;;;;7.47;3.17;;;17.50;91.80;;;;;;5045111;28;20033;-68
2022/06/20 01:08:25;;;;;;;5.22;2.65;;;17.50;92.10;;;;;;5070770;28;20055;-68
2022/06/20 01:10:54;;;;;;;9.80;3.42;;;17.50;92.10;;;;;;5054483;28;20445;-68
2022/06/20 01:13:23;;;;;;;7.82;4.35;;;17.50;92.50;;;;;;5055396;28;20037;-68
2022/06/20 01:15:51;;;;;;;8.05;3.90;;;17.60;92.30;;;;;;5073385;28;20029;-68
2022/06/20 01:18:30;;;;;;;8.95;4.93;;;17.50;92.30;;;;;;5071463;28;20059;-69
2022/06/20 01:20:57;;;;;;;11.02;6.85;;;17.50;92.50;;;;;;5054290;28;20049;-68
2022/06/20 01:23:44;;;;;;;13.18;7.25;;;17.50;92.50;;;;;;5057485;28;20035;-68
2022/06/20 01:26:34;;;;;;;10.48;6.63;;;17.40;92.70;;;;;;5061826;28;20120;-69
2022/06/20 01:29:03;;;;;;;9.88;6.30;;;17.30;92.80;;;;;;5054859;28;20028;-69
2022/06/20 01:31:33;;;;;;;12.00;6.68;;;17.30;92.90;;;;;;5051126;28;20025;-68
2022/06/20 01:34:01;;;;;;;9.80;6.40;;;17.20;93.20;;;;;;5052890;28;20079;-68
2022/06/20 01:39:17;;;;;;;11.70;6.97;;;17.20;93.60;;;;;;5056269;28;20025;-68
2022/06/20 01:44:31;;;;;;;10.88;6.70;;;17.10;93.50;;;;;;5058044;28;20028;-68
2022/06/20 01:46:57;;;;;;;9.38;5.65;;;17.10;93.80;;;;;;5070628;28;20033;-67
2022/06/20 01:49:24;;;;;;;7.85;5.43;;;17.10;94.00;;;;;;5059600;28;20020;-68
2022/06/20 01:51:54;;;;;;;8.27;4.70;;;17.10;94.30;;;;;;5070326;28;20025;-69
2022/06/20 01:54:23;;;;;;;8.05;4.72;;;17.10;94.30;;;;;;5054741;28;20616;-69
2022/06/20 01:56:52;;;;;;;10.55;5.55;;;17.20;94.50;;;;;;5061020;28;20021;-69
2022/06/20 01:59:36;;;;;;;12.48;5.35;;;17.20;94.50;;;;;;5074890;28;20031;-69
2022/06/20 02:02:02;;;;;;;10.25;5.07;;;17.30;94.60;;;;;;5058460;28;20037;-68
2022/06/20 02:04:33;;;;;;;7.53;3.90;;;17.30;94.50;;;;;;5054382;28;20028;-68
2022/06/20 02:07:01;;;;;;;7.32;4.40;;;17.30;94.40;;;;;;5064563;28;20357;-68
2022/06/20 02:09:27;;;;;;;7.82;4.05;;;17.30;94.50;;;;;;5063195;28;20048;-68
2022/06/20 02:11:52;;;;;;;9.02;4.03;;;17.20;94.40;;;;;;5071906;28;20028;-68
2022/06/20 02:14:23;;;;;;;6.78;4.40;;;17.20;94.40;;;;;;5074180;28;20026;-68
2022/06/20 02:16:54;;;;;;;11.05;4.07;;;17.20;94.50;;;;;;5065684;28;20028;-68
2022/06/20 02:19:26;;;;;;;9.23;4.50;;;17.10;94.50;;;;;;5073953;28;20082;-68
2022/06/20 02:21:58;;;;;;;7.93;4.20;;;17.10;94.60;;;;;;5067267;28;20041;-69
2022/06/20 02:24:25;;;;;;;8.85;5.45;;;17.00;94.50;;;;;;5053192;28;20163;-69
2022/06/20 02:26:54;;;;;;;8.55;4.53;;;17.00;94.70;;;;;;5058633;28;20029;-69
2022/06/20 02:29:26;;;;;;;11.48;4.57;;;17.10;94.80;;;;;;5052823;28;20515;-69
2022/06/20 02:32:24;;;;;;;10.95;4.78;;;17.00;94.70;;;;;;5057683;28;20032;-68
2022/06/20 02:34:50;;;;;;;8.32;4.40;;;17.00;94.60;;;;;;5073277;28;20028;-68
2022/06/20 02:37:23;;;;;;;8.52;4.88;;;17.00;94.60;;;;;;5064409;28;20127;-70
2022/06/20 02:39:52;;;;;;;10.35;4.53;;;17.00;94.70;;;;;;5053739;28;20095;-69
2022/06/20 02:42:25;;;;;;;9.35;4.05;;;16.90;94.70;;;;;;5062183;28;20049;-69
2022/06/20 02:44:52;;;;;;;12.07;4.55;;;16.90;94.80;;;;;;5073776;28;20028;-69
2022/06/20 02:47:19;;;;;;;10.32;4.28;;;16.90;94.80;;;;;;5087203;28;20039;-69
2022/06/20 02:49:46;;;;;;;10.00;4.45;;;16.90;94.90;;;;;;5066884;28;20032;-69
2022/06/20 02:52:18;;;;;;;6.88;3.97;;;16.90;94.90;;;;;;5060725;28;20040;-68
2022/06/20 02:54:45;;;;;;;10.75;4.07;;;17.00;94.90;;;;;;5056071;28;20171;-69
2022/06/20 02:57:19;;;;;;;5.78;3.47;;;16.90;95.00;;;;;;5065006;28;20459;-69
2022/06/20 02:59:50;;;;;;;7.13;3.63;;;17.00;94.80;;;;;;5059507;28;20060;-69
2022/06/20 03:02:18;;;;;;;6.85;3.22;;;16.90;94.90;;;;;;5071275;28;20053;-69
2022/06/20 03:04:45;;;;;;;5.10;3.25;;;16.90;94.80;;;;;;5058180;28;20069;-69
2022/06/20 03:07:16;;;;;;;4.72;3.15;;;16.90;94.80;;;;;;5053171;28;20025;-69
2022/06/20 03:09:45;;;;;;;7.38;3.45;;;16.90;94.70;;;;;;5060858;28;20028;-69
2022/06/20 03:12:12;;;;;;;6.15;3.50;;;16.90;94.50;;;;;;5071478;28;20054;-69
2022/06/20 03:14:40;;;;;;;4.78;2.60;;;17.00;94.50;;;;;;5053559;28;20150;-69
2022/06/20 03:17:07;;;;;;;8.88;3.20;;;17.00;94.60;;;;;;5059438;28;20082;-69
2022/06/20 03:19:37;;;;;;;6.35;3.15;;;17.00;94.60;;;;;;5054069;28;20104;-69
2022/06/20 03:22:07;;;;;;;5.68;3.17;;;17.00;94.70;;;;;;5054312;28;20041;-68
2022/06/20 03:24:35;;;;;;;7.80;3.72;;;17.00;94.70;;;;;;5053472;28;20035;-68
2022/06/20 03:27:04;;;;;;;6.82;3.80;;;17.00;94.80;;;;;;5059594;28;20029;-68
2022/06/20 03:29:30;;;;;;;8.73;3.70;;;17.10;94.70;;;;;;5052940;28;20418;-68
2022/06/20 03:31:56;;;;;;;5.88;3.58;;;17.10;94.70;;;;;;5056462;28;20091;-69
2022/06/20 03:34:22;;;;;;;9.82;3.58;;;17.10;94.70;;;;;;5052677;28;20071;-69
2022/06/20 03:36:49;;;;;;;8.73;4.25;;;17.10;94.70;;;;;;5053067;28;20111;-69
2022/06/20 03:39:18;;;;;;;6.63;3.67;;;17.10;94.80;;;;;;5072218;28;20104;-68
2022/06/20 03:41:43;;;;;;;5.82;3.53;;;17.10;94.80;;;;;;5069445;28;20044;-69
2022/06/20 03:44:15;;;;;;;8.05;4.28;;;17.10;94.70;;;;;;5053695;28;20396;-68
2022/06/20 03:46:48;;;;;;;6.03;3.85;;;17.10;94.80;;;;;;5052672;28;20482;-68
2022/06/20 03:49:22;;;;;;;8.32;4.28;;;17.10;94.90;;;;;;5052423;28;20541;-70
2022/06/20 03:51:55;;;;;;;6.75;4.28;;;17.10;94.80;;;;;;5056776;28;20471;-69
2022/06/20 03:54:26;;;;;;;8.20;4.75;;;17.10;94.80;;;;;;5072289;28;20381;-70
2022/06/20 03:57:00;;;;;;;6.68;3.72;;;17.10;94.80;;;;;;5070580;28;20025;-69
2022/06/20 03:59:36;;;;;;;9.55;4.53;;;17.10;94.90;;;;;;5072404;28;20379;-69
2022/06/20 04:02:11;;;;;;;10.07;4.60;;;17.20;94.90;;;;;;5064410;28;20040;-69
2022/06/20 04:04:44;;;;;;;6.07;3.42;;;17.20;95.10;;;;;;5052131;28;20025;-69
2022/06/20 04:07:18;;;;;;;11.50;4.25;;;17.30;95.20;;;;;;5051926;28;20025;-69
2022/06/20 04:12:52;;;;;;;7.50;3.70;;;17.40;95.00;;;;;;5063224;28;20025;-69
2022/06/20 04:15:23;;;;;;;6.57;3.67;;;17.50;94.90;;;;;;5072208;28;20415;-68
2022/06/20 04:18:29;;;;;;;6.32;3.30;;;17.60;95.00;;;;;;5067498;28;20025;-68
2022/06/20 04:20:58;;;;;;;7.07;3.65;;;17.60;94.90;;;;;;5070529;28;20400;-68
2022/06/20 04:23:42;;;;;;;5.45;2.67;;;17.70;94.90;;;;;;5069402;28;20039;-68
2022/06/20 04:26:18;;;;;;;6.57;2.93;;;17.80;94.70;;;;;;5070102;28;20495;-68
2022/06/20 04:29:00;;;;;;;9.75;3.58;;;17.90;94.10;;;;;;5070364;28;20029;-70
2022/06/20 04:31:33;;;;;;;7.05;3.80;;;17.80;93.90;;;;;;5057728;28;20523;-69
2022/06/20 04:34:22;;;;;;;5.68;3.30;;;17.80;93.90;;;;;;5071187;28;20035;-69
2022/06/20 04:36:56;;;;;;;5.22;3.13;;;17.90;93.80;;;;;;5059574;28;20483;-69
2022/06/20 04:39:39;;;;;;;6.13;3.05;;;18.00;93.60;;;;;;5054015;28;20036;-68
2022/06/20 04:42:22;;;;;;;7.03;3.10;;;18.00;93.30;;;;;;5063677;28;20480;-69
2022/06/20 04:45:02;;;;;;;7.22;2.88;;;18.00;93.40;;;;;;5051499;28;20426;-69
2022/06/20 04:47:43;;;;;;;5.57;2.80;;;18.00;93.30;;;;;;5051892;28;20535;-68
2022/06/20 04:50:16;;;;;;;6.38;3.00;;;18.10;93.10;;;;;;5068707;28;20023;-68
2022/06/20 04:52:42;;;;;;;5.90;3.78;;;18.00;93.10;;;;;;5059215;28;20041;-68
2022/06/20 04:55:14;;;;;;;7.00;3.60;;;18.00;92.90;;;;;;5051785;28;20106;-68
2022/06/20 04:57:40;;;;;;;7.55;2.90;;;17.90;93.00;;;;;;5062675;28;20048;-69
2022/06/20 05:00:16;;;;;;;4.70;2.70;;;17.90;92.90;;;;;;5069061;28;20532;-69
2022/06/20 05:02:42;;;;;;;5.03;2.95;;;17.80;92.90;;;;;;5057419;28;20051;-69
2022/06/20 05:05:15;;;;;;;9.80;3.95;;;17.80;93.00;;;;;;5070996;28;20029;-68
2022/06/20 05:07:41;;;;;;;6.28;2.85;;;17.70;93.40;;;;;;5069341;28;20334;-68
2022/06/20 05:10:11;;;;;;;4.05;3.13;;;17.70;93.40;;;;;;5064315;28;20021;-69
2022/06/20 05:13:00;;;;;;;5.63;3.40;;;17.70;93.30;;;;;;5059605;28;20033;-69
2022/06/20 05:15:41;;;;;;;6.93;3.08;;;17.60;93.30;;;;;;5031966;28;20186;-68
2022/06/20 05:18:31;;;;;;;7.68;3.50;;;17.60;93.40;;;;;;5067116;28;20033;-68
2022/06/20 05:21:09;;;;;;;8.10;3.88;;;17.60;94.10;;;;;;5053240;28;20128;-68
2022/06/20 05:23:58;;;;;;;7.35;3.70;;;17.50;94.80;;;;;;5074342;28;20040;-68
2022/06/20 05:26:28;;;;;;;9.77;3.92;;;17.50;94.80;;;;;;5059568;28;20115;-68
2022/06/20 05:28:57;;;;;;;8.40;4.45;;;17.40;94.80;;;;;;5058594;28;20029;-68
2022/06/20 05:31:37;;;;;;;10.57;4.22;;;17.30;95.20;;;;;;5071909;28;20115;-68
2022/06/20 05:34:09;;;;;;;7.25;4.20;;;17.30;95.60;;;;;;5063582;28;20052;-68
2022/06/20 05:36:56;;;;;;;10.15;4.47;;;17.20;95.90;;;;;;5057075;28;20376;-69
2022/06/20 05:39:28;;;;;;;10.30;4.65;;;17.20;96.30;;;;;;5068344;28;20024;-69
2022/06/20 05:41:54;;;;;;;7.72;4.22;;;17.20;96.60;;;;;;5072360;28;20388;-68
2022/06/20 05:44:20;;;;;;;8.20;4.35;;;17.20;96.70;;;;;;5056070;28;20017;-68
2022/06/20 05:46:52;;;;;;;10.23;4.90;;;17.10;96.90;;;;;;5070094;28;20041;-68
2022/06/20 05:49:25;;;;;;;9.13;4.75;;;17.10;97.10;;;;;;5073191;28;20099;-69
2022/06/20 05:51:52;;;;;;;7.72;4.10;;;17.20;97.20;;;;;;5069184;28;20032;-69
2022/06/20 05:54:22;;;;;;;8.10;4.50;;;17.20;97.30;;;;;;5053666;28;20095;-69
2022/06/20 05:56:53;;;;;;;7.95;4.40;;;17.20;97.50;;;;;;5058891;28;20115;-69
2022/06/20 05:59:27;;;;;;;8.25;4.40;;;17.20;97.30;;;;;;5066760;28;20036;-69
2022/06/20 06:02:15;;;;;;;9.65;5.15;;;17.10;97.40;;;;;;5059434;28;20049;-69
2022/06/20 06:04:56;;;;;;;7.57;3.83;;;17.10;97.50;;;;;;5054281;28;20029;-67
2022/06/20 06:07:27;;;;;;;10.05;5.13;;;17.10;97.60;;;;;;5072717;28;20028;-69
2022/06/20 06:10:19;;;;;;;10.38;5.10;;;17.10;97.60;;;;;;5057122;28;20068;-66
2022/06/20 06:12:51;;;;;;;10.77;5.00;;;17.10;97.60;;;;;;5055713;28;20025;-67
2022/06/20 06:15:29;;;;;;;11.75;5.95;;;17.00;97.60;;;;;;5080541;28;20028;-67
2022/06/20 06:18:01;;;;;;;9.60;5.50;;;16.80;97.80;;;;;;5056574;28;20086;-67
2022/06/20 06:20:31;;;;;;;10.10;5.78;;;16.70;98.10;;;;;;5066919;28;20086;-67
2022/06/20 06:23:06;;;;;;;12.02;6.05;;;16.60;98.30;;;;;;5058513;28;20476;-67
2022/06/20 06:25:36;;;;;;;11.13;6.93;;;16.60;98.60;;;;;;5071643;28;20108;-67
2022/06/20 06:28:11;;;;;;;14.55;6.65;;;16.50;98.80;;;;;;5059304;28;20033;-67
2022/06/20 06:30:53;;;;;;;14.48;6.90;;;16.40;99.00;;;;;;5062336;28;20083;-67
2022/06/20 06:33:41;;;;;;;11.60;6.95;;;16.40;99.40;;;;;;5060524;28;20041;-67
2022/06/20 06:36:15;;;;;;;8.88;5.97;;;16.40;99.50;;;;;;5064526;28;20037;-67
2022/06/20 06:38:48;;;;;;;14.67;6.53;;;16.30;99.70;;;;;;5073166;28;20032;-67
2022/06/20 06:41:35;;;;;;;10.60;6.28;;;16.30;99.90;;;;;;5055190;28;20302;-67
2022/06/20 06:44:11;;;;;;;16.40;6.80;;;16.40;99.90;;;;;;5070051;28;20106;-67
2022/06/20 06:46:39;;;;;;;13.07;5.97;;;16.40;99.90;;;;;;5068556;28;20032;-67
2022/06/20 06:49:25;;;;;;;9.73;5.68;;;16.50;99.90;;;;;;5073204;28;20480;-67
2022/06/20 06:52:10;;;;;;;10.27;5.80;;;16.50;99.90;;;;;;5057437;28;20119;-67
2022/06/20 06:54:41;;;;;;;8.57;6.03;;;16.60;99.90;;;;;;5060826;28;20051;-67
2022/06/20 06:57:12;;;;;;;9.70;6.25;;;16.50;99.90;;;;;;5056396;28;20028;-67
2022/06/20 06:59:47;;;;;;;10.63;6.13;;;16.50;99.90;;;;;;5067611;28;20028;-67
2022/06/20 07:02:19;;;;;;;;;;;16.50;99.90;;;;;;5069091;28;20039;-67
2022/06/20 07:05:00;;;;;;;9.63;5.88;;;16.50;99.90;;;;;;5060858;28;20233;-67
2022/06/20 07:07:33;;;;;;;8.10;5.15;;;16.60;99.90;;;;;;5064316;28;20123;-69
2022/06/20 07:10:00;;;;;;;13.00;6.47;;;16.60;99.90;;;;;;5070109;28;20098;-68
2022/06/20 07:12:44;;;;;;;6.95;5.07;;;16.60;99.90;;;;;;5061928;28;20037;-68
2022/06/20 07:15:13;;;;;;;8.68;4.82;;;16.60;99.90;;;;;;5062882;28;20036;-68
2022/06/20 07:17:50;;;;;;;7.78;5.57;;;16.70;99.80;;;;;;5062682;28;20119;-72
2022/06/20 07:20:17;;;;;;;8.45;5.15;;;16.60;99.90;;;;;;5060600;28;20032;-72
2022/06/20 07:22:45;;;;;;;9.57;5.15;;;16.60;99.90;;;;;;5064658;28;20040;-72
2022/06/20 07:25:17;;;;;;;7.07;4.80;;;16.60;99.90;;;;;;5065445;28;20496;-72
2022/06/20 07:27:54;;;;;;;7.70;4.68;;;16.60;99.90;;;;;;5058541;28;20029;-71
2022/06/20 07:30:24;;;;;;;8.05;5.35;;;16.60;99.90;;;;;;5070312;28;20028;-70
2022/06/20 07:32:54;;;;;;;8.10;5.22;;;16.60;99.90;;;;;;5066759;28;20040;-71
2022/06/20 07:35:35;;;;;;;7.20;5.22;;;16.50;99.80;;;;;;5066665;28;20557;-73
2022/06/20 07:38:25;;;;;;;6.22;4.88;;;16.60;99.90;;;;;;5063255;28;20032;-73
2022/06/20 07:41:10;;;;;;;8.38;5.00;;;16.60;99.90;;;;;;5067806;28;20025;-70
2022/06/20 07:43:43;;;;;;;7.78;4.97;;;16.70;99.90;;;;;;5071281;28;20029;-70
2022/06/20 07:46:25;;;;;;;10.52;5.82;;;16.70;99.90;;;;;;5070602;28;20033;-65
2022/06/20 07:48:54;;;;;;;8.57;5.68;;;16.80;99.90;;;;;;5077262;28;20036;-67
2022/06/20 07:51:27;;;;;;;8.45;5.38;;;16.90;99.90;;;;;;5052726;28;20021;-67
2022/06/20 07:53:58;;;;;;;8.63;5.72;;;16.90;99.90;;;;;;5054574;28;20025;-68
2022/06/20 07:56:30;;;;;;;10.20;5.28;;;16.90;99.90;;;;;;5069415;28;20024;-69
2022/06/20 07:59:16;;;;;;;8.27;5.47;;;17.00;99.90;;;;;;5066271;28;20032;-68
2022/06/20 08:01:53;;;;;;;11.13;5.55;;;17.10;99.90;;;;;;5064371;28;20118;-70
2022/06/20 08:04:27;;;;;;;8.50;5.28;;;17.10;99.90;;;;;;5055705;28;20119;-69
2022/06/20 08:07:31;;;;;;;8.68;5.55;;;17.20;99.90;;;;;;5068687;28;20029;-69
2022/06/20 08:10:07;;;;;;;9.20;5.78;;;17.20;99.90;;;;;;5069135;28;20047;-68
2022/06/20 08:12:42;;;;;;;7.25;5.05;;;17.20;99.90;;;;;;5060585;28;20035;-69
2022/06/20 08:15:16;;;;;;;5.78;4.63;;;17.20;99.90;;;;;;5058622;28;20036;-68
2022/06/20 08:17:41;;;;;;;8.20;5.70;;;17.30;99.90;;;;;;5061507;28;20039;-69
2022/06/20 08:20:08;;;;;;;9.30;5.47;;;17.30;99.80;;;;;;5064517;28;20017;-69
2022/06/20 08:22:57;;;;;;;9.00;6.20;;;17.30;99.80;;;;;;5055840;28;20075;-69
2022/06/20 08:25:24;;;;;;;7.97;6.10;;;17.30;99.70;;;;;;5066618;28;20031;-68
2022/06/20 08:27:59;;;;;;;8.07;6.07;;;17.30;99.70;;;;;;5069417;28;20035;-68
2022/06/20 08:30:36;;;;;;;7.78;5.40;;;17.40;99.70;;;;;;5056871;28;20112;-70
2022/06/20 08:33:13;;;;;;;8.57;4.85;;;17.30;99.30;;;;;;5061610;28;20032;-69
2022/06/20 08:35:51;;;;;;;8.98;5.68;;;17.30;99.30;;;;;;5064982;28;20035;-69
2022/06/20 08:38:27;;;;;;;6.68;5.20;;;17.30;99.50;;;;;;5063752;28;20036;-70
2022/06/20 08:41:30;;;;;;;7.47;5.68;;;17.30;99.40;;;;;;5065592;28;20090;-69
2022/06/20 08:44:16;;;;;;;8.38;5.18;;;17.30;99.20;;;;;;5059564;28;20044;-69
2022/06/20 08:47:25;;;;;;;8.75;5.72;;;17.30;99.60;;;;;;5064007;28;20310;-69
2022/06/20 08:50:35;;;;;;;7.55;5.13;;;17.40;99.70;;;;;;5053540;28;20068;-69
2022/06/20 08:53:33;;;;;;;7.80;5.75;;;17.50;99.30;;;;;;5058128;28;20045;-69
2022/06/20 08:56:26;;;;;;;9.63;5.88;;;17.50;99.40;;;;;;5073480;28;20430;-69
2022/06/20 08:59:05;;;;;;;7.60;6.60;;;17.50;99.40;;;;;;5072903;28;20064;-70
2022/06/20 09:02:04;;;;;;;9.02;6.38;;;17.50;99.30;;;;;;5071119;28;20040;-70
2022/06/20 09:04:54;;;;;;;8.70;6.75;;;17.50;99.40;;;;;;5073964;28;20068;-68
2022/06/20 09:07:33;;;;;;;8.27;6.40;;;17.50;99.10;;;;;;5064863;28;20082;-68
2022/06/20 09:10:24;;;;;;;12.23;7.63;;;17.50;99.30;;;;;;5072780;28;20072;-69
2022/06/20 09:12:50;;;;;;;10.55;6.13;;;17.60;99.20;;;;;;5062037;28;20095;-68
2022/06/20 09:15:52;;;;;;;7.13;6.10;;;17.50;99.00;;;;;;5064203;28;20032;-69
2022/06/20 09:18:35;;;;;;;7.85;6.15;;;17.60;99.20;;;;;;5063815;28;20025;-68
2022/06/20 09:21:19;;;;;;;10.27;5.78;;;17.60;99.20;;;;;;5063745;28;20051;-69
2022/06/20 09:24:21;;;;;;;8.77;5.30;;;17.60;98.90;;;;;;5071668;28;20044;-69
2022/06/20 09:27:01;;;;;;;6.10;5.22;;;17.60;99.00;;;;;;5064152;28;20051;-69
2022/06/20 09:29:38;;;;;;;8.77;5.95;;;17.60;98.70;;;;;;5070377;28;20483;-70
2022/06/20 09:32:35;;;;;;;8.40;5.28;;;17.60;98.60;;;;;;5066134;28;20048;-69
2022/06/20 09:35:13;;;;;;;7.70;5.47;;;17.60;98.70;;;;;;5071063;28;20027;-70
2022/06/20 09:38:08;;;;;;;7.70;5.68;;;17.60;98.60;;;;;;5074255;28;20379;-69
2022/06/20 09:40:46;;;;;;;6.70;5.07;;;17.60;98.50;;;;;;5069175;28;20032;-70
2022/06/20 09:43:30;;;;;;;7.53;5.35;;;17.70;98.50;;;;;;5061871;28;20396;-69
2022/06/20 09:46:21;;;;;;;6.47;4.70;;;17.70;98.40;;;;;;5072552;28;20058;-69
2022/06/20 09:49:16;;;;;;;8.77;5.07;;;17.70;98.60;;;;;;5061510;28;20428;-69
2022/06/20 09:51:53;;;;;;;6.65;5.57;;;17.70;98.20;;;;;;5055766;28;20041;-69
2022/06/20 09:54:40;;;;;;;8.93;5.65;;;17.70;98.40;;;;;;5070476;28;20418;-69
2022/06/20 09:57:23;;;;;;;6.93;4.53;;;17.70;98.00;;;;;;5059340;28;20625;-69
2022/06/20 10:00:05;;;;;;;9.55;5.80;;;17.70;98.10;;;;;;5058156;28;20382;-69
2022/06/20 10:02:54;;;;;;;6.50;4.80;;;17.70;97.80;;;;;;5060519;28;20102;-69
2022/06/20 10:05:44;;;;;;;8.27;4.05;;;17.70;97.70;;;;;;5067605;28;20380;-68
2022/06/20 10:08:37;;;;;;;7.82;4.32;;;17.70;97.40;;;;;;5055889;28;20044;-68
2022/06/20 10:11:20;;;;;;;7.05;4.38;;;17.70;97.80;;;;;;5068607;28;20345;-69
2022/06/20 10:14:04;;;;;;;10.85;6.25;;;17.70;97.80;;;;;;5071439;28;20028;-69
2022/06/20 10:16:51;;;;;;;5.95;4.53;;;17.70;97.70;;;;;;5065960;28;20139;-69
2022/06/20 10:19:34;;;;;;;8.00;4.50;;;17.70;97.80;;;;;;5070124;28;20040;-69
2022/06/20 10:22:15;;;;;;;9.40;4.15;;;17.70;97.80;;;;;;5059347;28;20487;-69
2022/06/20 10:24:51;;;;;;;7.53;5.07;;;17.70;97.70;;;;;;5067377;28;20032;-69
2022/06/20 10:27:35;;;;;;;5.50;4.53;;;17.70;97.80;;;;;;5058533;28;20534;-68
2022/06/20 10:30:09;;;;;;;6.75;4.75;;;17.70;97.80;;;;;;5067495;28;20078;-68
2022/06/20 10:33:10;;;;;;;6.03;4.30;;;17.70;97.80;;;;;;5058999;28;20511;-69
2022/06/20 10:35:57;;;;;;;6.00;4.00;;;17.70;98.10;;;;;;5071808;28;20040;-69
2022/06/20 10:38:30;;;;;;;9.00;5.15;;;17.70;98.10;;;;;;5060445;28;20468;-69
2022/06/20 10:41:14;;;;;;;6.20;4.35;;;17.80;98.00;;;;;;5071901;28;20053;-70
2022/06/20 10:44:22;;;;;;;7.78;5.40;;;17.80;98.00;;;;;;5074444;28;20090;-70
2022/06/20 10:47:05;;;;;;;6.20;4.90;;;17.80;98.20;;;;;;5038900;28;20040;-70
2022/06/20 10:49:52;;;;;;;6.05;4.80;;;17.80;98.50;;;;;;5071251;28;20028;-70
2022/06/20 10:52:36;;;;;;;6.72;4.80;;;17.80;98.20;;;;;;5061680;28;20029;-69
2022/06/20 10:55:40;;;;;;;7.40;4.85;;;17.80;98.70;;;;;;5056314;28;20037;-69
2022/06/20 10:58:11;;;;;;;9.15;5.60;;;17.90;98.90;;;;;;5055512;28;20032;-69
2022/06/20 11:00:48;;;;;;;7.75;5.32;;;17.90;98.90;;;;;;5069403;28;20032;-69
2022/06/20 11:03:29;;;;;;;8.15;5.35;;;17.90;99.00;;;;;;5069518;28;20087;-71
2022/06/20 11:05:57;;;;;;;9.68;5.32;;;17.90;98.90;;;;;;5058662;28;20028;-70
2022/06/20 11:08:52;;;;;;;7.88;5.05;;;17.90;99.00;;;;;;5069306;28;20056;-69
2022/06/20 11:11:21;;;;;;;7.13;4.38;;;17.90;99.10;;;;;;5052857;28;20032;-69
2022/06/20 11:13:57;;;;;;;8.63;5.22;;;17.90;99.10;;;;;;5052705;28;20033;-69
2022/06/20 11:17:07;;;;;;;10.88;5.35;;;17.90;99.10;;;;;;5051851;28;20116;-69
2022/06/20 11:20:17;;;;;;;6.82;5.35;;;17.90;99.10;;;;;;5053673;28;20123;-69
2022/06/20 11:23:04;;;;;;;8.85;5.00;;;17.90;99.00;;;;;;5053675;28;20032;-69
2022/06/20 11:25:45;;;;;;;7.78;4.15;;;17.90;99.00;;;;;;5068539;28;20031;-69
2022/06/20 11:28:22;;;;;;;5.40;3.50;;;17.90;99.20;;;;;;5086830;28;20028;-69
2022/06/20 11:31:03;;;;;;;7.25;3.55;;;17.90;98.90;;;;;;5092544;28;20047;-69
2022/06/20 11:34:03;;;;;;;6.95;3.97;;;17.90;98.90;;;;;;5063275;28;20025;-69
2022/06/20 11:36:57;;;;;;;4.43;3.20;;;18.00;99.00;;;;;;5052119;28;20029;-69
2022/06/20 11:39:44;;;;;;;4.28;3.35;;;18.00;98.90;;;;;;5057306;28;20041;-69
2022/06/20 11:42:10;;;;;;;5.72;3.53;;;18.00;98.90;;;;;;5073398;28;20490;-69
2022/06/20 11:45:11;;;;;;;5.53;3.25;;;18.00;98.90;;;;;;5078596;28;20033;-69
2022/06/20 11:48:09;;;;;;;4.05;2.80;;;18.10;98.90;;;;;;5055008;28;20524;-69
2022/06/20 11:51:06;;;;;;;4.85;3.15;;;18.10;99.00;;;;;;5061766;28;20055;-70
2022/06/20 11:54:02;;;;;;;7.10;3.33;;;18.10;99.00;;;;;;5070369;28;20031;-69
2022/06/20 11:56:44;;;;;;;4.28;2.50;;;18.20;99.00;;;;;;5060238;28;20071;-70
2022/06/20 11:59:33;;;;;;;3.20;2.10;;;18.30;98.20;;;;;;5051950;28;20500;-70
2022/06/20 12:02:36;;;;;;;4.53;2.40;;;18.30;98.20;;;;;;5064095;28;20044;-69
2022/06/20 12:05:16;;;;;;;3.78;2.03;;;18.30;98.20;;;;;;5071989;28;20376;-70
2022/06/20 12:08:15;;;;;;;3.20;1.85;;;18.30;97.60;;;;;;5062573;28;20082;-69
2022/06/20 12:10:40;;;;;;;2.17;1.80;;;18.30;97.80;;;;;;5067547;28;20508;-69
2022/06/20 12:13:28;;;;;;;3.72;1.73;;;18.30;97.80;;;;;;5062068;28;20086;-69
2022/06/20 12:16:01;;;;;;;3.75;1.80;;;18.40;97.60;;;;;;5051336;28;20021;-69
2022/06/20 12:24:23;;;;;;;3.05;1.88;;;18.40;97.50;;;;;;5053977;28;20029;-68
2022/06/20 12:26:49;;;;;;;3.35;2.00;;;18.50;97.60;;;;;;5070954;28;20044;-70
2022/06/20 12:29:21;;;;;;;3.83;2.05;;;18.50;97.60;;;;;;5068841;28;20376;-69
2022/06/20 12:31:52;;;;;;;3.33;2.20;;;18.60;97.50;;;;;;5051355;28;20037;-68
2022/06/20 12:34:56;;;;;;;2.70;1.98;;;18.60;97.60;;;;;;5050110;28;20024;-69
2022/06/20 12:37:36;;;;;;;4.10;2.22;;;18.70;97.50;;;;;;5051497;28;20017;-70
2022/06/20 12:40:15;;;;;;;2.90;2.10;;;18.70;97.60;;;;;;5051263;28;20171;-69
2022/06/20 12:42:54;;;;;;;3.90;2.25;;;18.80;97.40;;;;;;5056195;28;20041;-70
2022/06/20 12:46:04;;;;;;;3.05;2.20;;;18.80;97.50;;;;;;5062308;28;20032;-70
2022/06/20 12:48:44;;;;;;;3.13;2.40;;;18.90;97.50;;;;;;5027678;28;20405;-69
2022/06/20 12:51:19;;;;;;;4.13;2.20;;;18.90;97.50;;;;;;5046963;28;20037;-69
2022/06/20 12:54:11;;;;;;;2.78;2.10;;;19.00;97.60;;;;;;5049712;28;20538;-69
2022/06/20 12:57:21;;;;;;;4.18;2.58;;;19.00;97.60;;;;;;5050780;28;20122;-68
2022/06/20 13:00:13;;;;;;;4.50;2.45;;;19.00;97.60;;;;;;5027451;28;20041;-69
2022/06/20 13:03:02;;;;;;;5.80;2.53;;;19.10;97.00;;;;;;5065330;28;20094;-68
2022/06/20 13:06:08;;;;;;;2.13;1.58;;;19.10;96.90;;;;;;5064638;28;20472;-69
2022/06/20 13:08:49;;;;;;;2.28;1.65;;;19.20;96.80;;;;;;5059106;28;20064;-67
2022/06/20 13:11:38;;;;;;;3.60;2.30;;;19.20;96.50;;;;;;5050361;28;20582;-69
2022/06/20 13:14:39;;;;;;;3.55;2.13;;;19.20;96.40;;;;;;5051476;28;20033;-67
2022/06/20 13:17:38;;;;;;;4.05;1.95;;;19.30;96.50;;;;;;5051245;28;20121;-69
2022/06/20 13:20:24;;;;;;;2.72;1.90;;;19.30;96.50;;;;;;5050196;28;20036;-68
2022/06/20 13:23:14;;;;;;;2.28;1.58;;;19.30;96.10;;;;;;5068107;28;20478;-69
2022/06/20 13:26:03;;;;;;;2.40;1.83;;;19.30;96.00;;;;;;5068499;28;20114;-68
2022/06/20 13:28:36;;;;;;;4.35;2.35;;;19.30;95.80;;;;;;5057692;28;20029;-70
2022/06/20 13:31:10;;;;;;;2.60;2.08;;;19.30;95.70;;;;;;5068176;28;20044;-71
2022/06/20 13:34:15;;;;;;;2.78;2.10;;;19.40;95.80;;;;;;5070595;28;20426;-70
2022/06/20 13:36:44;;;;;;;3.08;1.77;;;19.50;95.80;;;;;;5066701;28;20033;-70
2022/06/20 13:39:37;;;;;;;2.58;1.67;;;19.50;95.80;;;;;;5073463;28;20384;-72
2022/06/20 13:42:13;;;;;;;3.00;1.77;;;19.60;95.60;;;;;;5061725;28;20045;-69
2022/06/20 13:44:56;;;;;;;1.85;1.52;;;19.70;95.50;;;;;;5059811;28;20032;-70
2022/06/20 13:47:28;;;;;;;2.42;1.63;;;19.80;95.30;;;;;;5063401;28;20098;-69
2022/06/20 13:50:18;;;;;;;2.10;1.55;;;19.90;95.10;;;;;;5062551;28;20025;-69
2022/06/20 13:52:53;;;;;;;2.33;1.63;;;19.90;95.10;;;;;;5058797;28;20056;-68
2022/06/20 13:55:44;;;;;;;1.95;1.52;;;20.00;95.00;;;;;;5058115;28;20033;-68